Impacts TAF Board INFO
FOR SITUATIONAL AWARENESS. NOT TO BE USED FOR FLIGHT PLANNING PURPOSES.
IDs:

KIAD - Washington/Dulles In, VA, US

Issued at 0858 UTC 23 Jan 2017
Updated at 1040 UTC 23 Jan 2017
Potential Impact None Slight Moderate High
Time0952Z 23/11Z 23/12Z 23/13Z 23/14Z 23/15Z 23/16Z 23/17Z 23/18Z 23/19Z 23/20Z 23/21Z 23/22Z 23/23Z
Type OBS PRVL PRVL PRVL PRVL PRVL PRVL PRVL PRVL PRVL PRVL PRVL PRVL PRVL
VIS 5 5 1 1 1 1 1 1 1 1 1 1 1 1
CIG 9 5 5 5 5 5 5 5 5 5 5 5 5 5
Cover OVC OVC OVC OVC OVC OVC OVC OVC OVC OVC OVC OVC OVC OVC
FltCat IFR IFR IFR IFR IFR IFR IFR IFR IFR IFR IFR IFR IFR IFR
WX -DZ BR -DZ RA BR RA BR RA BR RA BR RA BR RA BR RA BR RA BR RA BR RA BR RA BR RA BR
WDir 70 80 60 60 60 60 60 70 70 70 70 70 70 70
WSpd 17 11 16 16 16 16 16 13 13 13 13 13 13 13
WGst 28 30 30 30 30 30 30 24 24 24 24 24 24 24

Raw TAF
KIAD 230858Z 2309/2412 08011G30KT 5SM -DZ OVC005
  FM231200 06016G30KT 1SM RA BR OVC005
  FM231700 07013G24KT 1SM RA BR OVC005 WS020/07040KT
  FM240300 36007KT 3SM -SHRA OVC010


Raw METAR
KIAD 230952Z 07017G28KT 5SM -DZ BR SCT006 BKN009 OVC011 08/06 A2951 RMK AO2 PK WND 09028/0946 PRESFR SLP992 P0000 T00780061
KIAD 230852Z 07015G26KT 6SM -DZ BR SCT006 BKN009 OVC011 08/07 A2954 RMK AO2 PK WND 06026/0844 RAE18DZB48 SLP004 P0001 60001 T00830067 58017
KIAD 230752Z 08017G25KT 4SM -RA BR SCT006 BKN009 OVC011 09/07 A2957 RMK AO2 PK WND 07026/0707 DZE48RAB48 SLP013 P0000 T00890072

METAR Board
Radar Display
Forecast Discussion

FOR SITUATIONAL AWARENESS. NOT TO BE USED FOR FLIGHT PLANNING PURPOSES.

Page loaded:  10:40 UTC  |   02:40 AM Pacific  |   03:40 AM Mountain  |   04:40 AM Central  |   05:40 AM Eastern

 

ADVISORIES

FORECASTS

FORECASTS

OBSERVATIONS

USER TOOLS

ABOUT US